Time;durP1;ratioP1;P1;durP2;ratioP2;P2;SDS_P1;SDS_P2;PMS_P1;PMS_P2;Temp;Humidity;BMP_temperature;BMP_pressure;BME280_temperature;BME280_humidity;BME280_pressure;Samples;Min_cycle;Max_cycle;Signal;HPM_P1;HPM_P2
2023/10/29 00:00:59;;;;;;;6.13;2.40;;;;;;;;;;5114290;28;20106;-71
2023/10/29 00:03:45;;;;;;;5.82;2.13;;;;;;;;;;5113621;28;20016;-70
2023/10/29 00:06:31;;;;;;;6.13;2.47;;;;;;;;;;5113741;28;20015;-71
2023/10/29 00:09:17;;;;;;;8.70;2.70;;;;;;;;;;5114895;28;20012;-71
2023/10/29 00:12:03;;;;;;;6.18;2.30;;;;;;;;;;5114464;28;20023;-71
2023/10/29 00:14:48;;;;;;;5.60;2.78;;;;;;;;;;5115296;28;20035;-71
2023/10/29 00:17:34;;;;;;;7.30;2.35;;;;;;;;;;5130373;28;20024;-71
2023/10/29 00:20:20;;;;;;;6.78;2.22;;;;;;;;;;5135437;28;20463;-71
2023/10/29 00:23:05;;;;;;;5.82;2.30;;;;;;;;;;5134760;28;20053;-72
2023/10/29 00:25:51;;;;;;;3.75;2.50;;;;;;;;;;5133178;28;20030;-71
2023/10/29 00:28:36;;;;;;;5.03;2.40;;;;;;;;;;5133781;28;20023;-73
2023/10/29 00:31:23;;;;;;;4.00;1.98;;;;;;;;;;5131364;28;20118;-71
2023/10/29 00:34:09;;;;;;;3.85;1.90;;;;;;;;;;5133416;28;20406;-71
2023/10/29 00:36:55;;;;;;;6.20;2.72;;;;;;;;;;5136269;28;20019;-72
2023/10/29 00:39:40;;;;;;;4.32;2.45;;;;;;;;;;5138097;28;20016;-72
2023/10/29 00:42:26;;;;;;;4.63;2.40;;;;;;;;;;5134589;28;20043;-72
2023/10/29 00:45:11;;;;;;;6.20;2.25;;;;;;;;;;5138527;28;20027;-70
2023/10/29 00:47:58;;;;;;;6.15;2.58;;;;;;;;;;5123845;28;20028;-73
2023/10/29 00:50:44;;;;;;;4.32;2.35;;;;;;;;;;5125041;28;20043;-72
2023/10/29 00:53:29;;;;;;;7.03;2.55;;;;;;;;;;5139217;28;20033;-71
2023/10/29 00:56:18;;;;;;;5.38;2.25;;;;;;;;;;5138906;28;20037;-70
2023/10/29 00:59:04;;;;;;;5.35;2.08;;;;;;;;;;5135213;28;20039;-71
2023/10/29 01:01:50;;;;;;;7.47;2.65;;;;;;;;;;5131723;28;20031;-71
2023/10/29 01:55:36;;;;;;;7.38;3.88;;;;;;;;;;4852515;27;20118;-71
2023/10/29 01:58:22;;;;;;;5.85;3.38;;;;;;;;;;5130668;28;20511;-71
2023/10/29 02:01:11;;;;;;;5.10;3.50;;;;;;;;;;5123355;28;20027;-70
2023/10/29 02:03:57;;;;;;;6.53;3.30;;;;;;;;;;5103755;28;20459;-71
2023/10/29 02:06:43;;;;;;;9.15;3.22;;;;;;;;;;5117914;28;20019;-70
2023/10/29 02:09:28;;;;;;;7.60;3.20;;;;;;;;;;5117192;28;20023;-70
2023/10/29 02:12:14;;;;;;;6.72;3.00;;;;;;;;;;5121780;28;20428;-71
2023/10/29 02:15:00;;;;;;;7.05;2.95;;;;;;;;;;5129735;28;20028;-72
2023/10/29 02:17:46;;;;;;;5.45;2.65;;;;;;;;;;5136991;28;20047;-70
2023/10/29 02:20:31;;;;;;;6.65;2.75;;;;;;;;;;5132795;28;20032;-71
2023/10/29 02:23:17;;;;;;;5.72;2.78;;;;;;;;;;5106976;28;20024;-72
2023/10/29 02:26:02;;;;;;;5.93;2.60;;;;;;;;;;5121004;28;20015;-70
2023/10/29 02:28:49;;;;;;;6.65;2.63;;;;;;;;;;5137166;28;20067;-71
2023/10/29 02:31:34;;;;;;;5.60;2.50;;;;;;;;;;5119284;28;20019;-73
2023/10/29 02:34:20;;;;;;;4.40;2.17;;;;;;;;;;5122838;28;20499;-72
2023/10/29 02:37:05;;;;;;;6.38;2.33;;;;;;;;;;5136247;28;20016;-70
2023/10/29 02:39:51;;;;;;;5.35;2.30;;;;;;;;;;5122910;28;20004;-71
2023/10/29 02:42:37;;;;;;;5.03;2.55;;;;;;;;;;5121848;28;20016;-70
2023/10/29 02:45:22;;;;;;;6.80;2.45;;;;;;;;;;5122492;28;20012;-69
2023/10/29 02:48:08;;;;;;;9.77;2.55;;;;;;;;;;5137388;28;20019;-71
2023/10/29 02:50:54;;;;;;;5.03;2.80;;;;;;;;;;5136901;28;20016;-70
2023/10/29 02:53:39;;;;;;;7.05;2.92;;;;;;;;;;5136059;28;20024;-71
2023/10/29 02:56:25;;;;;;;9.35;2.80;;;;;;;;;;5122137;28;20035;-70
2023/10/29 02:59:10;;;;;;;4.10;2.40;;;;;;;;;;5135105;28;20055;-70
2023/10/29 03:01:56;;;;;;;5.05;2.80;;;;;;;;;;5132620;28;20057;-72
2023/10/29 03:04:42;;;;;;;6.07;2.85;;;;;;;;;;5101192;28;20051;-72
2023/10/29 03:07:27;;;;;;;6.20;2.60;;;;;;;;;;5115463;28;20133;-72
2023/10/29 03:10:13;;;;;;;4.72;3.03;;;;;;;;;;5115191;28;20427;-72
2023/10/29 03:12:58;;;;;;;6.38;2.95;;;;;;;;;;5116356;28;20314;-72
2023/10/29 03:15:44;;;;;;;6.32;2.88;;;;;;;;;;5115632;28;20106;-72
2023/10/29 03:18:30;;;;;;;5.40;2.33;;;;;;;;;;5120006;28;20027;-72
2023/10/29 03:21:19;;;;;;;7.75;2.83;;;;;;;;;;5102324;28;20195;-71
2023/10/29 03:24:04;;;;;;;8.55;2.85;;;;;;;;;;5115318;28;20027;-71
2023/10/29 03:26:50;;;;;;;5.20;2.97;;;;;;;;;;5115107;28;20340;-70
2023/10/29 03:29:36;;;;;;;10.10;3.50;;;;;;;;;;5115847;28;20015;-71
2023/10/29 03:32:21;;;;;;;7.68;4.38;;;;;;;;;;5121232;28;20031;-71
2023/10/29 03:35:07;;;;;;;6.25;3.60;;;;;;;;;;5115650;28;20091;-71
2023/10/29 03:37:53;;;;;;;7.35;3.60;;;;;;;;;;5114514;28;20462;-71
2023/10/29 03:40:39;;;;;;;8.77;4.10;;;;;;;;;;5113691;28;20028;-71
2023/10/29 03:43:24;;;;;;;10.80;4.53;;;;;;;;;;5105064;28;20034;-71
2023/10/29 03:46:10;;;;;;;9.80;4.75;;;;;;;;;;5115395;28;20426;-72
2023/10/29 03:48:56;;;;;;;8.32;4.50;;;;;;;;;;5114961;28;20020;-71
2023/10/29 03:51:45;;;;;;;9.65;4.60;;;;;;;;;;5098184;28;20055;-72
2023/10/29 03:54:33;;;;;;;8.70;4.50;;;;;;;;;;5114429;28;20046;-70
2023/10/29 03:57:19;;;;;;;7.85;4.72;;;;;;;;;;5100045;28;20020;-72
2023/10/29 04:00:05;;;;;;;15.38;5.03;;;;;;;;;;5099923;28;20027;-71
2023/10/29 04:02:50;;;;;;;10.40;4.38;;;;;;;;;;5113959;28;20031;-72
2023/10/29 04:05:36;;;;;;;9.75;4.57;;;;;;;;;;5099013;28;20080;-71
2023/10/29 04:08:22;;;;;;;8.38;4.72;;;;;;;;;;5113494;28;20058;-71
2023/10/29 04:11:08;;;;;;;8.82;4.80;;;;;;;;;;5116980;28;20107;-71
2023/10/29 04:13:53;;;;;;;13.02;4.82;;;;;;;;;;5103956;28;20102;-74
2023/10/29 04:16:39;;;;;;;10.18;4.82;;;;;;;;;;5104070;28;20042;-72
2023/10/29 04:19:24;;;;;;;8.38;4.93;;;;;;;;;;5118275;28;20031;-72
2023/10/29 04:22:10;;;;;;;10.77;5.32;;;;;;;;;;5118811;28;20077;-72
2023/10/29 04:24:56;;;;;;;12.27;5.25;;;;;;;;;;5117314;28;20019;-72
2023/10/29 04:27:41;;;;;;;10.63;5.60;;;;;;;;;;5118822;28;20439;-71
2023/10/29 04:30:27;;;;;;;8.52;4.90;;;;;;;;;;5118455;28;20023;-71
2023/10/29 04:33:12;;;;;;;10.93;5.25;;;;;;;;;;5103262;28;20114;-71
2023/10/29 04:35:58;;;;;;;8.90;5.35;;;;;;;;;;5117972;28;20031;-71
2023/10/29 04:38:44;;;;;;;9.45;5.00;;;;;;;;;;5118016;28;20027;-71
2023/10/29 04:41:29;;;;;;;9.93;4.88;;;;;;;;;;5102772;28;20429;-71
2023/10/29 04:44:15;;;;;;;14.05;4.78;;;;;;;;;;5103557;28;20034;-70
2023/10/29 04:47:03;;;;;;;9.02;4.68;;;;;;;;;;5103223;28;20026;-71
2023/10/29 04:49:49;;;;;;;7.97;4.88;;;;;;;;;;5118214;28;20012;-71
2023/10/29 04:52:34;;;;;;;7.05;4.25;;;;;;;;;;5117739;28;20020;-71
2023/10/29 04:55:20;;;;;;;10.65;4.65;;;;;;;;;;5117883;28;20459;-71
2023/10/29 04:58:06;;;;;;;8.85;4.45;;;;;;;;;;5117668;28;20545;-71
2023/10/29 05:00:51;;;;;;;9.68;4.45;;;;;;;;;;5117517;28;20028;-71
2023/10/29 05:03:37;;;;;;;8.43;4.22;;;;;;;;;;5103571;28;20015;-71
2023/10/29 05:06:23;;;;;;;7.45;4.30;;;;;;;;;;5117695;28;20019;-71
2023/10/29 05:09:09;;;;;;;11.75;4.10;;;;;;;;;;5117349;28;20119;-72
2023/10/29 05:11:55;;;;;;;8.35;4.22;;;;;;;;;;5117451;28;20092;-71
2023/10/29 05:14:40;;;;;;;10.77;4.18;;;;;;;;;;5102802;28;20076;-71
2023/10/29 05:17:26;;;;;;;9.20;4.32;;;;;;;;;;5117629;28;20024;-71
2023/10/29 05:20:11;;;;;;;9.00;4.03;;;;;;;;;;5116764;28;20122;-71
2023/10/29 05:22:57;;;;;;;9.95;4.38;;;;;;;;;;5101405;28;20019;-71
2023/10/29 05:25:44;;;;;;;11.50;3.90;;;;;;;;;;5103602;28;20059;-72
2023/10/29 05:28:29;;;;;;;7.85;4.32;;;;;;;;;;5117312;28;20038;-70
2023/10/29 05:31:15;;;;;;;9.48;4.38;;;;;;;;;;5116609;28;20060;-71
2023/10/29 05:34:01;;;;;;;7.43;3.72;;;;;;;;;;5102284;28;20076;-70
2023/10/29 05:36:47;;;;;;;6.75;4.07;;;;;;;;;;5102533;28;20031;-71
2023/10/29 05:39:32;;;;;;;6.25;3.47;;;;;;;;;;5116320;28;20023;-71
2023/10/29 05:42:18;;;;;;;9.07;4.10;;;;;;;;;;5116568;28;20107;-71
2023/10/29 05:45:06;;;;;;;11.40;4.20;;;;;;;;;;5116552;28;20029;-71
2023/10/29 05:47:52;;;;;;;9.55;4.25;;;;;;;;;;5116056;28;20015;-71
2023/10/29 05:50:38;;;;;;;6.78;3.78;;;;;;;;;;5117155;28;20051;-72
2023/10/29 05:53:24;;;;;;;10.13;4.57;;;;;;;;;;5117437;28;20110;-71
2023/10/29 05:56:10;;;;;;;9.23;3.38;;;;;;;;;;5101811;28;20054;-72
2023/10/29 05:58:55;;;;;;;7.00;3.58;;;;;;;;;;5116292;28;20036;-71
2023/10/29 06:01:41;;;;;;;9.38;3.80;;;;;;;;;;5102473;28;20051;-72
2023/10/29 06:04:27;;;;;;;9.80;3.80;;;;;;;;;;5116911;28;20039;-72
2023/10/29 06:07:13;;;;;;;8.15;3.35;;;;;;;;;;5116668;28;20496;-71
2023/10/29 06:09:58;;;;;;;5.05;2.90;;;;;;;;;;5116537;28;20023;-72
2023/10/29 06:12:44;;;;;;;10.32;3.92;;;;;;;;;;5116439;28;20454;-72
2023/10/29 06:15:30;;;;;;;8.27;3.38;;;;;;;;;;5116595;28;20031;-72
2023/10/29 06:18:16;;;;;;;7.75;3.35;;;;;;;;;;5116076;28;20132;-71
2023/10/29 06:21:02;;;;;;;7.18;3.50;;;;;;;;;;5116074;28;20020;-71
2023/10/29 06:23:48;;;;;;;6.15;3.30;;;;;;;;;;5116572;28;20024;-71
2023/10/29 06:26:34;;;;;;;6.40;3.97;;;;;;;;;;5115883;28;20098;-71
2023/10/29 06:29:20;;;;;;;8.63;4.03;;;;;;;;;;5115725;28;20031;-71
2023/10/29 06:32:06;;;;;;;7.57;3.55;;;;;;;;;;5101052;28;20034;-71
2023/10/29 06:34:51;;;;;;;8.80;3.78;;;;;;;;;;5114377;28;20110;-71
2023/10/29 06:37:37;;;;;;;5.78;2.80;;;;;;;;;;5116355;28;20035;-71
2023/10/29 06:40:24;;;;;;;5.65;3.15;;;;;;;;;;5095320;28;20042;-71
2023/10/29 06:43:10;;;;;;;5.85;3.17;;;;;;;;;;5100501;28;20023;-72
2023/10/29 06:45:56;;;;;;;6.45;2.85;;;;;;;;;;5099375;28;20020;-71
2023/10/29 06:48:42;;;;;;;5.18;2.92;;;;;;;;;;5101019;28;20397;-72
2023/10/29 06:51:28;;;;;;;7.78;3.85;;;;;;;;;;5114682;28;20030;-71
2023/10/29 06:54:13;;;;;;;7.28;3.45;;;;;;;;;;5115306;28;20055;-71
2023/10/29 06:56:59;;;;;;;7.28;3.08;;;;;;;;;;5115163;28;20089;-71
2023/10/29 06:59:44;;;;;;;5.25;2.90;;;;;;;;;;5114891;28;20023;-71
2023/10/29 07:02:31;;;;;;;5.35;2.90;;;;;;;;;;5114700;28;20066;-71
2023/10/29 07:05:16;;;;;;;6.95;2.95;;;;;;;;;;5115215;28;20023;-71
2023/10/29 07:08:02;;;;;;;5.75;2.65;;;;;;;;;;5114664;28;20008;-72
2023/10/29 07:10:47;;;;;;;7.22;2.90;;;;;;;;;;5100372;28;20015;-72
2023/10/29 07:13:34;;;;;;;5.43;2.80;;;;;;;;;;5115034;28;20027;-71
2023/10/29 07:16:20;;;;;;;7.40;2.88;;;;;;;;;;5100261;28;20023;-71
2023/10/29 07:19:06;;;;;;;6.95;2.80;;;;;;;;;;5114419;28;20026;-71
2023/10/29 07:21:52;;;;;;;5.95;2.95;;;;;;;;;;5114921;28;20458;-72
2023/10/29 07:24:37;;;;;;;7.78;2.75;;;;;;;;;;5114981;28;20023;-73
2023/10/29 07:27:23;;;;;;;4.22;2.85;;;;;;;;;;5115630;28;20015;-71
2023/10/29 07:30:09;;;;;;;5.53;2.42;;;;;;;;;;5117446;28;20027;-72
2023/10/29 07:32:55;;;;;;;4.40;3.05;;;;;;;;;;5115846;28;20015;-72
2023/10/29 07:35:40;;;;;;;5.03;2.45;;;;;;;;;;5110959;28;20035;-72
2023/10/29 07:38:26;;;;;;;8.98;2.83;;;;;;;;;;5100581;28;20028;-73
2023/10/29 07:41:11;;;;;;;7.50;3.13;;;;;;;;;;5114580;28;20092;-72
2023/10/29 07:43:57;;;;;;;6.20;4.40;;;;;;;;;;5114205;28;20436;-72
2023/10/29 07:46:43;;;;;;;7.63;3.65;;;;;;;;;;5098680;28;20051;-72
2023/10/29 07:49:28;;;;;;;7.35;3.22;;;;;;;;;;5114192;28;20019;-73
2023/10/29 07:52:15;;;;;;;6.97;3.13;;;;;;;;;;5098860;28;20111;-71
2023/10/29 07:55:01;;;;;;;6.68;3.13;;;;;;;;;;5113610;28;20390;-72
2023/10/29 07:57:46;;;;;;;6.03;3.08;;;;;;;;;;5099206;28;20027;-72
2023/10/29 08:00:34;;;;;;;5.20;2.58;;;;;;;;;;5113426;28;20027;-72
2023/10/29 08:03:20;;;;;;;7.32;2.40;;;;;;;;;;5099593;28;20360;-71
2023/10/29 08:06:06;;;;;;;5.10;2.60;;;;;;;;;;5114983;28;20028;-73
2023/10/29 08:08:51;;;;;;;6.68;2.55;;;;;;;;;;5113161;28;20023;-72
2023/10/29 08:11:38;;;;;;;7.47;2.42;;;;;;;;;;5113982;28;20015;-71
2023/10/29 08:14:23;;;;;;;6.07;2.50;;;;;;;;;;5113850;28;20023;-71
2023/10/29 08:17:09;;;;;;;3.70;2.00;;;;;;;;;;5114133;28;20099;-72
2023/10/29 08:19:54;;;;;;;5.25;2.30;;;;;;;;;;5114249;28;20410;-72
2023/10/29 08:22:40;;;;;;;3.92;2.08;;;;;;;;;;5113730;28;20207;-71
2023/10/29 08:25:26;;;;;;;6.50;2.10;;;;;;;;;;5113833;28;20027;-71
2023/10/29 08:28:12;;;;;;;5.68;1.80;;;;;;;;;;5098627;28;20025;-73
2023/10/29 08:30:57;;;;;;;4.85;1.85;;;;;;;;;;5113813;28;20071;-71
2023/10/29 08:33:43;;;;;;;3.00;1.80;;;;;;;;;;5113958;28;20344;-71
2023/10/29 08:36:29;;;;;;;3.83;1.85;;;;;;;;;;5114075;28;20081;-73
2023/10/29 08:39:14;;;;;;;5.78;2.28;;;;;;;;;;5114267;28;20103;-70
2023/10/29 08:42:02;;;;;;;4.95;1.98;;;;;;;;;;5099285;28;20341;-71
2023/10/29 08:44:47;;;;;;;6.00;2.22;;;;;;;;;;5113270;28;20110;-71
2023/10/29 08:47:33;;;;;;;4.55;2.00;;;;;;;;;;5114041;28;20023;-72
2023/10/29 08:50:19;;;;;;;7.15;2.40;;;;;;;;;;5113317;28;20008;-71
2023/10/29 08:53:04;;;;;;;4.13;2.30;;;;;;;;;;5114162;28;20016;-71
2023/10/29 08:55:52;;;;;;;5.03;3.13;;;;;;;;;;5111996;28;20126;-72
2023/10/29 08:58:38;;;;;;;7.47;2.28;;;;;;;;;;5116978;28;20032;-71
2023/10/29 09:01:24;;;;;;;4.63;2.40;;;;;;;;;;5117216;28;20070;-71
2023/10/29 09:04:10;;;;;;;4.07;2.30;;;;;;;;;;5117482;28;20031;-72
2023/10/29 09:06:56;;;;;;;5.70;2.38;;;;;;;;;;5117402;28;20033;-71
2023/10/29 09:09:41;;;;;;;6.47;2.67;;;;;;;;;;5116654;28;20492;-72
2023/10/29 09:12:27;;;;;;;10.93;2.97;;;;;;;;;;5117116;28;20353;-72
2023/10/29 09:15:13;;;;;;;4.35;2.55;;;;;;;;;;5117069;28;20026;-74
2023/10/29 09:17:59;;;;;;;4.05;2.10;;;;;;;;;;5102130;28;20055;-72
2023/10/29 09:20:47;;;;;;;5.18;2.50;;;;;;;;;;5117407;28;20031;-72
2023/10/29 09:23:33;;;;;;;5.55;2.30;;;;;;;;;;5103971;28;20030;-72
2023/10/29 09:26:19;;;;;;;4.50;2.10;;;;;;;;;;5117345;28;20081;-72
2023/10/29 09:29:04;;;;;;;7.70;2.20;;;;;;;;;;5117036;28;20100;-71
2023/10/29 09:31:51;;;;;;;5.00;1.73;;;;;;;;;;5102676;28;20016;-72
2023/10/29 09:34:39;;;;;;;5.78;2.00;;;;;;;;;;5117665;28;20056;-72
2023/10/29 09:37:24;;;;;;;4.15;2.53;;;;;;;;;;5101890;28;20098;-73
2023/10/29 09:40:13;;;;;;;7.05;2.33;;;;;;;;;;5116918;28;20019;-73
2023/10/29 09:43:03;;;;;;;8.52;2.30;;;;;;;;;;5117277;28;20089;-71
2023/10/29 09:45:50;;;;;;;3.88;1.92;;;;;;;;;;5116274;28;20016;-72
2023/10/29 09:48:36;;;;;;;3.67;1.58;;;;;;;;;;5100028;28;20015;-72
2023/10/29 09:51:22;;;;;;;4.65;2.10;;;;;;;;;;5116505;28;20016;-71
2023/10/29 09:54:07;;;;;;;4.40;2.00;;;;;;;;;;5116895;28;20113;-72
2023/10/29 09:56:53;;;;;;;5.25;2.00;;;;;;;;;;5116164;28;20112;-74
2023/10/29 09:59:39;;;;;;;4.13;1.92;;;;;;;;;;5115117;28;20012;-71
2023/10/29 10:02:26;;;;;;;3.15;1.90;;;;;;;;;;5116831;28;20028;-72
2023/10/29 10:05:12;;;;;;;5.00;2.00;;;;;;;;;;5101621;28;20020;-72
2023/10/29 10:07:57;;;;;;;3.38;1.77;;;;;;;;;;5116186;28;20440;-71
2023/10/29 10:10:43;;;;;;;5.95;2.08;;;;;;;;;;5116722;28;20027;-72
2023/10/29 10:13:41;;;;;;;3.78;1.77;;;;;;;;;;5115206;28;20027;-71
2023/10/29 10:16:26;;;;;;;6.82;2.25;;;;;;;;;;5117003;28;20031;-72
2023/10/29 10:19:13;;;;;;;3.85;1.65;;;;;;;;;;5115843;28;20023;-72
2023/10/29 10:21:58;;;;;;;4.47;1.60;;;;;;;;;;5115650;28;20023;-71
2023/10/29 10:24:44;;;;;;;3.00;1.73;;;;;;;;;;5116149;28;20106;-71
2023/10/29 10:27:30;;;;;;;4.03;1.60;;;;;;;;;;5115737;28;20035;-73
2023/10/29 10:30:26;;;;;;;3.80;1.50;;;;;;;;;;5100954;28;20116;-71
2023/10/29 10:33:12;;;;;;;4.15;1.45;;;;;;;;;;5115940;28;20034;-72
2023/10/29 10:35:58;;;;;;;2.47;1.50;;;;;;;;;;5116051;28;20076;-72
2023/10/29 10:38:51;;;;;;;5.88;1.98;;;;;;;;;;5100762;28;20027;-72
2023/10/29 10:41:42;;;;;;;8.20;1.45;;;;;;;;;;5115262;28;20023;-72
2023/10/29 10:44:31;;;;;;;3.35;1.50;;;;;;;;;;5101486;28;20031;-72
2023/10/29 10:47:16;;;;;;;4.15;1.52;;;;;;;;;;5116053;28;20019;-71
2023/10/29 10:50:02;;;;;;;2.58;1.63;;;;;;;;;;5116077;28;20012;-72
2023/10/29 10:52:49;;;;;;;2.75;1.80;;;;;;;;;;5115638;28;20058;-71
2023/10/29 10:55:35;;;;;;;3.38;1.70;;;;;;;;;;5114866;28;20380;-72
2023/10/29 10:58:21;;;;;;;4.72;2.22;;;;;;;;;;5115210;28;20502;-72
2023/10/29 11:01:08;;;;;;;6.55;1.90;;;;;;;;;;5114667;28;20031;-72
2023/10/29 11:03:54;;;;;;;4.32;2.08;;;;;;;;;;5114936;28;20424;-72
2023/10/29 11:06:40;;;;;;;3.90;2.08;;;;;;;;;;5099826;28;20499;-72
2023/10/29 11:09:26;;;;;;;3.47;2.05;;;;;;;;;;5099753;28;20039;-72
2023/10/29 11:12:12;;;;;;;4.15;2.70;;;;;;;;;;5114580;28;20031;-72
2023/10/29 11:15:17;;;;;;;4.85;2.80;;;;;;;;;;5114911;28;20016;-73
2023/10/29 11:18:03;;;;;;;7.38;3.60;;;;;;;;;;5099586;28;20062;-72
2023/10/29 11:20:52;;;;;;;6.43;4.05;;;;;;;;;;5113594;28;20505;-71
2023/10/29 11:23:38;;;;;;;7.68;5.50;;;;;;;;;;5114624;28;20016;-71
2023/10/29 11:26:24;;;;;;;7.75;4.90;;;;;;;;;;5099229;28;20432;-71
2023/10/29 11:29:30;;;;;;;9.07;5.32;;;;;;;;;;5114574;28;20042;-72
2023/10/29 11:32:25;;;;;;;8.68;7.18;;;;;;;;;;5115116;28;20047;-72
2023/10/29 11:35:24;;;;;;;9.80;7.60;;;;;;;;;;5113348;28;20024;-71
2023/10/29 11:38:26;;;;;;;10.80;8.13;;;;;;;;;;5100464;28;20028;-71
2023/10/29 11:41:31;;;;;;;13.05;9.45;;;;;;;;;;5114136;28;20028;-71
2023/10/29 11:44:17;;;;;;;11.15;8.45;;;;;;;;;;5114592;28;20031;-71
2023/10/29 11:47:03;;;;;;;11.05;8.30;;;;;;;;;;5114449;28;20444;-72
2023/10/29 11:49:50;;;;;;;12.65;7.72;;;;;;;;;;5099101;28;20023;-72
2023/10/29 11:52:42;;;;;;;12.00;7.22;;;;;;;;;;5114380;28;20512;-71
2023/10/29 11:55:28;;;;;;;15.07;7.57;;;;;;;;;;5114424;28;20105;-73
2023/10/29 11:58:18;;;;;;;11.25;7.28;;;;;;;;;;5113471;28;20019;-72
2023/10/29 12:01:04;;;;;;;15.27;8.23;;;;;;;;;;5114386;28;20351;-71
2023/10/29 12:03:50;;;;;;;14.05;7.70;;;;;;;;;;5101116;28;20406;-70
2023/10/29 12:06:40;;;;;;;14.02;6.35;;;;;;;;;;5114097;28;20024;-71
2023/10/29 12:09:27;;;;;;;6.63;4.90;;;;;;;;;;5113955;28;20074;-71
2023/10/29 12:12:13;;;;;;;11.35;6.15;;;;;;;;;;5099554;28;20023;-72
2023/10/29 12:14:59;;;;;;;10.02;5.85;;;;;;;;;;5113759;28;20038;-72
2023/10/29 12:17:45;;;;;;;12.93;6.78;;;;;;;;;;5114742;28;20034;-72
2023/10/29 12:20:31;;;;;;;5.90;4.35;;;;;;;;;;5114346;28;20448;-71
2023/10/29 12:23:17;;;;;;;5.65;3.75;;;;;;;;;;5099737;28;20448;-72
2023/10/29 12:26:04;;;;;;;7.32;4.05;;;;;;;;;;5099201;28;20062;-71
2023/10/29 12:28:51;;;;;;;8.05;4.28;;;;;;;;;;5099318;28;20040;-70
2023/10/29 12:31:36;;;;;;;8.27;4.30;;;;;;;;;;5115345;28;20039;-70
2023/10/29 12:34:22;;;;;;;8.45;5.32;;;;;;;;;;5102394;28;20023;-71
2023/10/29 12:37:07;;;;;;;10.05;5.63;;;;;;;;;;5117486;28;20062;-72
2023/10/29 12:39:56;;;;;;;5.25;4.03;;;;;;;;;;5117355;28;20031;-71
2023/10/29 12:42:59;;;;;;;9.20;4.13;;;;;;;;;;5101300;28;20090;-72
2023/10/29 12:45:45;;;;;;;8.38;4.13;;;;;;;;;;5117304;28;20019;-71
2023/10/29 12:48:31;;;;;;;7.32;3.40;;;;;;;;;;5102211;28;20012;-71
2023/10/29 12:51:22;;;;;;;7.25;3.58;;;;;;;;;;5103490;28;20037;-72
2023/10/29 12:54:14;;;;;;;6.00;3.72;;;;;;;;;;5117804;28;20541;-70
2023/10/29 12:57:11;;;;;;;6.50;3.30;;;;;;;;;;5117219;28;20047;-71
2023/10/29 12:59:57;;;;;;;9.07;3.13;;;;;;;;;;5103110;28;20016;-71
2023/10/29 13:02:43;;;;;;;6.35;2.50;;;;;;;;;;5117463;28;20173;-72
2023/10/29 13:05:28;;;;;;;8.65;2.40;;;;;;;;;;5102667;28;20094;-71
2023/10/29 13:08:15;;;;;;;7.22;2.15;;;;;;;;;;5102479;28;20023;-72
2023/10/29 13:11:02;;;;;;;6.93;2.60;;;;;;;;;;5117695;28;20016;-71
2023/10/29 13:13:48;;;;;;;6.85;2.35;;;;;;;;;;5117538;28;20031;-72
2023/10/29 13:16:34;;;;;;;3.70;2.08;;;;;;;;;;5089145;28;20027;-70
2023/10/29 13:19:20;;;;;;;3.50;2.00;;;;;;;;;;5116856;28;20106;-71
2023/10/29 13:22:06;;;;;;;5.90;2.30;;;;;;;;;;5102287;28;20028;-72
2023/10/29 13:24:52;;;;;;;7.85;2.30;;;;;;;;;;5117468;28;20057;-71
2023/10/29 13:27:39;;;;;;;5.72;2.55;;;;;;;;;;5116596;28;20030;-72
2023/10/29 13:30:25;;;;;;;5.75;2.70;;;;;;;;;;5115297;28;20035;-72
2023/10/29 13:33:11;;;;;;;5.93;2.45;;;;;;;;;;5117428;28;20102;-72
2023/10/29 13:35:56;;;;;;;3.70;2.13;;;;;;;;;;5116984;28;20034;-72
2023/10/29 13:38:42;;;;;;;5.28;2.33;;;;;;;;;;5116900;28;20031;-72
2023/10/29 13:41:28;;;;;;;5.22;2.50;;;;;;;;;;5116811;28;20050;-72
2023/10/29 13:44:15;;;;;;;4.53;2.20;;;;;;;;;;5115744;28;20430;-73
2023/10/29 13:47:02;;;;;;;6.70;2.33;;;;;;;;;;5101811;28;20023;-72
2023/10/29 13:49:47;;;;;;;6.75;2.65;;;;;;;;;;5116935;28;20045;-74
2023/10/29 13:52:33;;;;;;;4.78;2.80;;;;;;;;;;5116295;28;20019;-73
2023/10/29 13:55:23;;;;;;;6.18;2.40;;;;;;;;;;5116762;28;20058;-71
2023/10/29 13:58:08;;;;;;;4.32;2.20;;;;;;;;;;5103029;28;20015;-72
2023/10/29 14:00:54;;;;;;;7.85;2.40;;;;;;;;;;5117063;28;20508;-72
2023/10/29 14:03:40;;;;;;;6.55;2.65;;;;;;;;;;5116259;28;20039;-72
2023/10/29 14:06:26;;;;;;;4.88;2.20;;;;;;;;;;5116838;28;20023;-71
2023/10/29 14:09:11;;;;;;;4.97;2.80;;;;;;;;;;5117996;27;20460;-72
2023/10/29 14:11:57;;;;;;;6.85;3.28;;;;;;;;;;5115903;28;20034;-72
2023/10/29 14:14:43;;;;;;;6.88;2.67;;;;;;;;;;5115833;28;20019;-71
2023/10/29 14:17:28;;;;;;;6.45;2.60;;;;;;;;;;5116353;28;20150;-72
2023/10/29 14:20:14;;;;;;;6.30;2.63;;;;;;;;;;5115771;28;20023;-72
2023/10/29 14:23:00;;;;;;;4.35;3.08;;;;;;;;;;5115714;28;20035;-73
2023/10/29 14:25:47;;;;;;;9.07;3.03;;;;;;;;;;5115958;28;20058;-72
2023/10/29 14:28:33;;;;;;;6.55;2.65;;;;;;;;;;5115719;28;20091;-72
2023/10/29 14:31:18;;;;;;;8.50;3.00;;;;;;;;;;5115661;28;20416;-71
2023/10/29 14:34:04;;;;;;;5.78;2.88;;;;;;;;;;5100919;28;20443;-72
2023/10/29 14:36:49;;;;;;;10.32;3.10;;;;;;;;;;5116317;28;20133;-71
2023/10/29 14:39:35;;;;;;;12.82;3.15;;;;;;;;;;5115733;28;20035;-73
2023/10/29 14:42:21;;;;;;;10.00;3.05;;;;;;;;;;5115236;28;20418;-73
2023/10/29 14:45:09;;;;;;;7.35;3.17;;;;;;;;;;5115381;28;20077;-72
2023/10/29 14:47:55;;;;;;;11.95;4.30;;;;;;;;;;5115850;28;20020;-72
2023/10/29 14:50:40;;;;;;;12.45;3.80;;;;;;;;;;5115352;28;20019;-73
2023/10/29 14:53:26;;;;;;;11.23;3.65;;;;;;;;;;5114022;28;20031;-72
2023/10/29 14:56:12;;;;;;;13.07;3.92;;;;;;;;;;5114252;28;20050;-72
2023/10/29 14:58:57;;;;;;;14.85;4.43;;;;;;;;;;5117035;28;20027;-72
2023/10/29 15:01:43;;;;;;;12.77;4.93;;;;;;;;;;5115598;28;20019;-74
2023/10/29 15:04:28;;;;;;;13.85;6.28;;;;;;;;;;5115413;28;20062;-72
2023/10/29 15:07:14;;;;;;;16.10;5.38;;;;;;;;;;5115785;28;20016;-70
2023/10/29 15:10:05;;;;;;;14.32;5.22;;;;;;;;;;5116019;28;20008;-73
2023/10/29 15:12:50;;;;;;;14.20;5.35;;;;;;;;;;5115099;28;20030;-72
2023/10/29 15:15:36;;;;;;;17.48;5.40;;;;;;;;;;5100286;28;20030;-69
2023/10/29 15:18:22;;;;;;;16.02;6.18;;;;;;;;;;5114446;28;20122;-72
2023/10/29 15:21:12;;;;;;;15.93;6.95;;;;;;;;;;5114783;28;20042;-72
2023/10/29 15:23:58;;;;;;;29.90;11.50;;;;;;;;;;5115077;28;20029;-71
2023/10/29 15:26:44;;;;;;;20.67;9.50;;;;;;;;;;5116303;27;20032;-71
2023/10/29 15:29:30;;;;;;;24.13;9.60;;;;;;;;;;5114625;28;20049;-72
2023/10/29 15:32:15;;;;;;;26.77;10.80;;;;;;;;;;5114600;28;20027;-72
2023/10/29 15:35:01;;;;;;;23.60;9.82;;;;;;;;;;5116497;28;20098;-72
2023/10/29 15:37:46;;;;;;;19.92;8.68;;;;;;;;;;5114448;28;20384;-72
2023/10/29 15:40:32;;;;;;;22.75;8.75;;;;;;;;;;5114254;28;20031;-72
2023/10/29 15:43:17;;;;;;;20.38;8.85;;;;;;;;;;5099354;28;20034;-72
2023/10/29 15:46:04;;;;;;;20.73;7.25;;;;;;;;;;5114370;28;20015;-72
2023/10/29 15:48:50;;;;;;;17.60;7.35;;;;;;;;;;5114228;28;20022;-72
2023/10/29 15:51:36;;;;;;;20.23;7.55;;;;;;;;;;5099553;28;20020;-73
2023/10/29 15:54:21;;;;;;;16.50;7.35;;;;;;;;;;5113998;28;20043;-73
2023/10/29 15:57:08;;;;;;;13.63;7.35;;;;;;;;;;5113922;28;20020;-72
2023/10/29 15:59:55;;;;;;;20.48;8.20;;;;;;;;;;5113710;28;20020;-73
2023/10/29 16:02:42;;;;;;;21.05;9.40;;;;;;;;;;5114581;28;20355;-71
2023/10/29 16:05:27;;;;;;;16.50;8.70;;;;;;;;;;5114492;28;20016;-72
2023/10/29 16:08:14;;;;;;;23.88;9.80;;;;;;;;;;5120786;28;20011;-72
2023/10/29 16:11:00;;;;;;;21.90;9.55;;;;;;;;;;5121121;28;20042;-72
2023/10/29 16:13:46;;;;;;;18.20;8.70;;;;;;;;;;5120890;28;20106;-71
2023/10/29 16:16:31;;;;;;;23.73;11.38;;;;;;;;;;5106326;28;20038;-72
2023/10/29 16:19:17;;;;;;;23.25;11.95;;;;;;;;;;5120920;28;20016;-72
2023/10/29 16:22:02;;;;;;;21.35;10.23;;;;;;;;;;5122354;27;20031;-72
2023/10/29 16:24:48;;;;;;;25.85;10.48;;;;;;;;;;5120816;28;20024;-73
2023/10/29 16:27:34;;;;;;;24.67;9.85;;;;;;;;;;5121108;28;20012;-72
2023/10/29 16:30:24;;;;;;;22.67;10.38;;;;;;;;;;5120867;28;20019;-72
2023/10/29 16:33:09;;;;;;;20.77;9.52;;;;;;;;;;5122568;27;20054;-72
2023/10/29 16:35:55;;;;;;;21.73;9.10;;;;;;;;;;5120238;28;20444;-72
2023/10/29 16:38:41;;;;;;;18.98;8.32;;;;;;;;;;5120884;28;20351;-71
2023/10/29 16:41:27;;;;;;;16.08;8.35;;;;;;;;;;5120666;28;20423;-72
2023/10/29 16:44:12;;;;;;;15.90;7.65;;;;;;;;;;5120773;28;20061;-72
2023/10/29 16:46:59;;;;;;;17.30;8.27;;;;;;;;;;5106425;28;20055;-72
2023/10/29 16:49:48;;;;;;;18.55;8.57;;;;;;;;;;5106534;28;20066;-72
2023/10/29 16:52:34;;;;;;;13.05;7.45;;;;;;;;;;5107248;28;20030;-71
2023/10/29 16:55:20;;;;;;;12.90;7.28;;;;;;;;;;5125855;28;20094;-69
2023/10/29 16:58:05;;;;;;;15.20;7.53;;;;;;;;;;5127502;28;20023;-71
2023/10/29 17:00:51;;;;;;;15.10;7.32;;;;;;;;;;5105768;28;20110;-71
2023/10/29 17:03:36;;;;;;;20.05;7.72;;;;;;;;;;5120000;28;20063;-72
2023/10/29 17:06:22;;;;;;;12.50;6.47;;;;;;;;;;5120700;28;20031;-72
2023/10/29 17:09:08;;;;;;;16.05;8.13;;;;;;;;;;5119878;28;20015;-72
2023/10/29 17:11:53;;;;;;;13.57;7.25;;;;;;;;;;5120611;28;20092;-72
2023/10/29 17:14:39;;;;;;;17.30;6.65;;;;;;;;;;5105627;28;20395;-72
2023/10/29 17:17:28;;;;;;;12.38;6.40;;;;;;;;;;5118483;28;20440;-71
2023/10/29 17:20:13;;;;;;;15.05;6.97;;;;;;;;;;5102112;28;20431;-71
2023/10/29 17:22:59;;;;;;;14.63;6.78;;;;;;;;;;5101918;28;20046;-72